Time;durP1;ratioP1;P1;durP2;ratioP2;P2;SDS_P1;SDS_P2;PMS_P1;PMS_P2;Temp;Humidity;BMP_temperature;BMP_pressure;BME280_temperature;BME280_humidity;BME280_pressure;Samples;Min_cycle;Max_cycle;Signal;HPM_P1;HPM_P2
2021/12/20 00:01:02;;;;;;;11.43;3.63;;;;;;;;;;6281953;22;20015;-76
2021/12/20 00:03:28;;;;;;;20.98;3.83;;;;;;;;;;6308788;22;20072;-77
2021/12/20 00:05:54;;;;;;;17.58;4.70;;;;;;;;;;6281474;22;20022;-76
2021/12/20 00:08:20;;;;;;;17.90;3.83;;;;;;;;;;6255597;22;20015;-76
2021/12/20 00:10:46;;;;;;;13.63;3.70;;;;;;;;;;6281705;22;20042;-75
2021/12/20 00:13:12;;;;;;;21.13;4.00;;;;;;;;;;6308135;22;20443;-76
2021/12/20 00:15:38;;;;;;;13.68;4.20;;;;;;;;;;6254787;22;20030;-76
2021/12/20 00:18:04;;;;;;;15.63;4.75;;;;;;;;;;6281624;22;20015;-78
2021/12/20 00:20:31;;;;;;;14.15;3.38;;;;;;;;;;6308459;22;20019;-76
2021/12/20 00:22:57;;;;;;;15.55;3.97;;;;;;;;;;6308495;22;20011;-77
2021/12/20 00:25:23;;;;;;;14.88;3.40;;;;;;;;;;6281334;22;20007;-76
2021/12/20 00:27:50;;;;;;;16.05;3.50;;;;;;;;;;6308681;22;20068;-76
2021/12/20 00:30:17;;;;;;;16.15;3.40;;;;;;;;;;6308258;22;20007;-76
2021/12/20 00:32:43;;;;;;;20.52;5.22;;;;;;;;;;6308230;22;20086;-76
2021/12/20 00:35:12;;;;;;;15.95;3.65;;;;;;;;;;6307932;22;20021;-74
2021/12/20 00:40:23;;;;;;;13.90;3.08;;;;;;;;;;6281203;22;20019;-75
2021/12/20 00:42:54;;;;;;;8.85;3.30;;;;;;;;;;6281202;22;20297;-76
2021/12/20 00:45:21;;;;;;;10.73;2.83;;;;;;;;;;6280867;22;20047;-76
2021/12/20 00:47:47;;;;;;;12.73;3.13;;;;;;;;;;6310658;22;20019;-74
2021/12/20 00:50:14;;;;;;;11.98;2.80;;;;;;;;;;6283326;22;20015;-75
2021/12/20 00:52:41;;;;;;;12.15;2.88;;;;;;;;;;6310161;22;20090;-76
2021/12/20 00:55:08;;;;;;;11.68;3.03;;;;;;;;;;6310350;22;20011;-77
2021/12/20 00:57:34;;;;;;;15.80;4.00;;;;;;;;;;6310186;22;20022;-75
2021/12/20 01:00:00;;;;;;;12.80;3.17;;;;;;;;;;6283321;22;20069;-76
2021/12/20 01:02:26;;;;;;;9.75;2.72;;;;;;;;;;6283639;22;20019;-75
2021/12/20 01:04:52;;;;;;;12.45;3.35;;;;;;;;;;6283453;22;20335;-76
2021/12/20 01:07:19;;;;;;;13.32;3.58;;;;;;;;;;6283436;22;20011;-76
2021/12/20 01:09:45;;;;;;;10.40;2.90;;;;;;;;;;6310503;22;20011;-76
2021/12/20 01:12:18;;;;;;;9.93;2.75;;;;;;;;;;6283310;22;20411;-77
2021/12/20 01:14:44;;;;;;;17.90;3.08;;;;;;;;;;6282253;22;20413;-76
2021/12/20 01:17:10;;;;;;;13.57;3.05;;;;;;;;;;6257815;22;20026;-76
2021/12/20 01:19:37;;;;;;;11.93;3.00;;;;;;;;;;6283022;22;20015;-75
2021/12/20 01:22:03;;;;;;;8.10;2.90;;;;;;;;;;6282811;22;20007;-76
2021/12/20 01:24:29;;;;;;;11.63;2.97;;;;;;;;;;6310410;22;20015;-75
2021/12/20 01:26:56;;;;;;;11.05;2.63;;;;;;;;;;6310351;22;20018;-75
2021/12/20 01:29:22;;;;;;;9.77;2.40;;;;;;;;;;6282627;22;20015;-76
2021/12/20 01:31:48;;;;;;;9.23;3.10;;;;;;;;;;6310104;22;20022;-76
2021/12/20 01:34:14;;;;;;;18.02;3.17;;;;;;;;;;6283439;22;20041;-75
2021/12/20 01:36:41;;;;;;;8.38;2.30;;;;;;;;;;6310118;22;20019;-77
2021/12/20 01:39:07;;;;;;;14.50;2.92;;;;;;;;;;6283613;22;20029;-76
2021/12/20 01:41:38;;;;;;;8.98;2.42;;;;;;;;;;6282858;22;20011;-77
2021/12/20 01:44:04;;;;;;;10.90;2.58;;;;;;;;;;6282286;22;20309;-77
2021/12/20 01:46:30;;;;;;;10.95;2.97;;;;;;;;;;6283125;22;20015;-76
2021/12/20 01:48:58;;;;;;;9.00;2.50;;;;;;;;;;6283243;22;20015;-77
2021/12/20 01:52:03;;;;;;;10.48;2.63;;;;;;;;;;6282978;22;20381;-77
2021/12/20 01:54:16;;;;;;;11.10;2.72;;;;;;;;;;6303351;22;20046;-75
2021/12/20 01:56:44;;;;;;;10.55;2.60;;;;;;;;;;6282653;22;20054;-76
2021/12/20 01:59:11;;;;;;;6.63;2.35;;;;;;;;;;6283259;22;20072;-75
2021/12/20 02:01:38;;;;;;;10.35;2.60;;;;;;;;;;6282356;22;20078;-79
2021/12/20 02:04:07;;;;;;;9.02;2.70;;;;;;;;;;6309820;22;20030;-76
2021/12/20 02:06:47;;;;;;;9.70;2.60;;;;;;;;;;6282700;22;20011;-75
2021/12/20 02:09:14;;;;;;;11.23;2.75;;;;;;;;;;6282371;22;20285;-76
2021/12/20 02:11:43;;;;;;;9.77;2.30;;;;;;;;;;6257063;22;20322;-77
2021/12/20 02:14:10;;;;;;;12.73;2.97;;;;;;;;;;6309327;22;20018;-76
2021/12/20 02:16:38;;;;;;;7.70;2.08;;;;;;;;;;6256426;22;20025;-77
2021/12/20 02:19:06;;;;;;;8.90;2.58;;;;;;;;;;6283088;22;20015;-77
2021/12/20 02:21:32;;;;;;;10.57;2.47;;;;;;;;;;6282302;22;20019;-77
2021/12/20 02:23:58;;;;;;;9.80;2.38;;;;;;;;;;6282266;22;20011;-77
2021/12/20 02:26:25;;;;;;;9.52;2.50;;;;;;;;;;6282225;22;20017;-76
2021/12/20 02:28:53;;;;;;;8.90;2.75;;;;;;;;;;6282959;22;20062;-76
2021/12/20 02:39:28;;;;;;;8.63;2.78;;;;;;;;;;6160462;23;20027;-77
2021/12/20 02:41:54;;;;;;;9.35;2.70;;;;;;;;;;6235660;22;20023;-76
2021/12/20 02:44:23;;;;;;;10.68;2.75;;;;;;;;;;6281638;22;20068;-76
2021/12/20 02:49:23;;;;;;;8.60;2.88;;;;;;;;;;6282109;22;20011;-76
2021/12/20 02:51:51;;;;;;;7.68;2.25;;;;;;;;;;6256409;22;20015;-75
2021/12/20 02:54:18;;;;;;;5.38;1.92;;;;;;;;;;6282105;22;20458;-76
2021/12/20 02:56:44;;;;;;;9.18;2.35;;;;;;;;;;6281732;22;20400;-75
2021/12/20 02:59:11;;;;;;;6.72;2.17;;;;;;;;;;6308518;22;20056;-76
2021/12/20 03:01:38;;;;;;;9.13;2.05;;;;;;;;;;6308946;22;20050;-76
2021/12/20 03:04:04;;;;;;;12.85;2.80;;;;;;;;;;6281943;22;20019;-78
2021/12/20 03:06:36;;;;;;;8.40;2.33;;;;;;;;;;6281992;22;20015;-77
2021/12/20 03:09:04;;;;;;;9.77;2.38;;;;;;;;;;6281499;22;20120;-77
2021/12/20 03:11:30;;;;;;;10.35;2.30;;;;;;;;;;6308697;22;20100;-76
2021/12/20 03:14:07;;;;;;;9.10;2.22;;;;;;;;;;6308390;22;20011;-74
2021/12/20 03:16:34;;;;;;;7.30;2.10;;;;;;;;;;6308681;22;20397;-76
2021/12/20 03:19:01;;;;;;;8.00;2.40;;;;;;;;;;6281802;22;20007;-75
2021/12/20 03:21:27;;;;;;;6.93;1.77;;;;;;;;;;6282156;22;20015;-76
2021/12/20 03:23:53;;;;;;;7.57;2.22;;;;;;;;;;6309054;22;20267;-77
2021/12/20 03:26:19;;;;;;;7.25;2.20;;;;;;;;;;6281702;22;20025;-75
2021/12/20 03:28:45;;;;;;;8.77;2.00;;;;;;;;;;6282604;22;20011;-77
2021/12/20 03:31:12;;;;;;;8.18;2.65;;;;;;;;;;6282298;22;20026;-78
2021/12/20 03:33:38;;;;;;;6.88;2.13;;;;;;;;;;6255868;22;20082;-75
2021/12/20 03:36:04;;;;;;;8.18;2.20;;;;;;;;;;6281745;22;20022;-77
2021/12/20 03:38:31;;;;;;;6.85;2.20;;;;;;;;;;6282033;22;20030;-75
2021/12/20 03:40:57;;;;;;;5.05;2.13;;;;;;;;;;6308905;22;20047;-76
2021/12/20 03:43:30;;;;;;;7.65;2.50;;;;;;;;;;6281628;22;20019;-76
2021/12/20 03:45:57;;;;;;;6.18;2.15;;;;;;;;;;6308146;22;20095;-75
2021/12/20 03:48:24;;;;;;;6.63;2.13;;;;;;;;;;6281779;22;20297;-74
2021/12/20 03:50:50;;;;;;;6.18;1.95;;;;;;;;;;6281755;22;20015;-77
2021/12/20 03:53:16;;;;;;;6.53;2.50;;;;;;;;;;6281561;22;20011;-76
2021/12/20 03:55:42;;;;;;;5.97;2.00;;;;;;;;;;6308976;22;20065;-75
2021/12/20 03:58:08;;;;;;;11.88;2.25;;;;;;;;;;6281487;22;20022;-75
2021/12/20 04:00:34;;;;;;;13.70;2.58;;;;;;;;;;6308565;22;20015;-76
2021/12/20 04:03:03;;;;;;;5.95;2.28;;;;;;;;;;6256089;22;20030;-75
2021/12/20 04:05:29;;;;;;;14.77;2.38;;;;;;;;;;6281749;22;20120;-76
2021/12/20 04:07:55;;;;;;;10.90;2.53;;;;;;;;;;6308086;22;20300;-76
2021/12/20 04:10:21;;;;;;;9.80;2.65;;;;;;;;;;6281353;22;20038;-76
2021/12/20 04:12:47;;;;;;;8.82;2.20;;;;;;;;;;6280944;22;20022;-75
2021/12/20 04:15:13;;;;;;;7.10;2.00;;;;;;;;;;6308026;22;20423;-76
2021/12/20 04:17:39;;;;;;;6.95;2.95;;;;;;;;;;6308347;22;20301;-76
2021/12/20 04:20:06;;;;;;;7.97;2.30;;;;;;;;;;6256113;22;20030;-76
2021/12/20 04:22:32;;;;;;;7.22;2.50;;;;;;;;;;6283133;22;20011;-76
2021/12/20 04:24:58;;;;;;;9.73;2.47;;;;;;;;;;6283517;22;20015;-76
2021/12/20 04:27:24;;;;;;;7.47;2.17;;;;;;;;;;6284155;22;20023;-76
2021/12/20 04:29:53;;;;;;;8.85;2.20;;;;;;;;;;6310754;22;20022;-76
2021/12/20 04:32:19;;;;;;;7.10;1.98;;;;;;;;;;6310919;22;20011;-75
2021/12/20 04:34:45;;;;;;;9.45;2.45;;;;;;;;;;6283659;22;20026;-76
2021/12/20 04:37:11;;;;;;;8.70;2.88;;;;;;;;;;6310464;22;20038;-76
2021/12/20 04:39:38;;;;;;;11.63;2.75;;;;;;;;;;6310832;22;20015;-76
2021/12/20 04:42:04;;;;;;;7.60;1.98;;;;;;;;;;6283511;22;20087;-76
2021/12/20 04:44:30;;;;;;;7.20;2.35;;;;;;;;;;6281132;22;20007;-75
2021/12/20 04:46:57;;;;;;;6.40;2.33;;;;;;;;;;6309629;22;20049;-77
2021/12/20 04:49:24;;;;;;;7.65;2.17;;;;;;;;;;6284011;22;20007;-76
2021/12/20 04:51:52;;;;;;;5.97;2.10;;;;;;;;;;6283213;22;20011;-75
2021/12/20 04:54:18;;;;;;;8.73;2.30;;;;;;;;;;6283400;22;20428;-78
2021/12/20 04:56:44;;;;;;;8.35;2.53;;;;;;;;;;6283188;22;20015;-78
2021/12/20 04:59:10;;;;;;;8.57;2.30;;;;;;;;;;6310071;22;20235;-75
2021/12/20 05:01:36;;;;;;;7.47;2.30;;;;;;;;;;6310386;22;20015;-76
2021/12/20 05:04:03;;;;;;;13.55;2.40;;;;;;;;;;6283536;22;20018;-76
2021/12/20 05:06:32;;;;;;;10.15;2.50;;;;;;;;;;6283221;22;20025;-76
2021/12/20 05:08:58;;;;;;;8.02;2.33;;;;;;;;;;6283620;22;20097;-78
2021/12/20 05:11:25;;;;;;;8.48;2.40;;;;;;;;;;6284109;22;20023;-77
2021/12/20 05:13:52;;;;;;;8.85;2.42;;;;;;;;;;6282795;22;20011;-76
2021/12/20 05:16:18;;;;;;;7.90;2.20;;;;;;;;;;6277663;22;20012;-76
2021/12/20 05:18:44;;;;;;;7.63;2.20;;;;;;;;;;6252260;22;20019;-76
2021/12/20 05:21:10;;;;;;;6.47;2.10;;;;;;;;;;6277663;22;20282;-76
2021/12/20 05:23:36;;;;;;;11.57;2.72;;;;;;;;;;6278497;22;20012;-77
2021/12/20 05:26:02;;;;;;;9.93;2.80;;;;;;;;;;6278949;22;20015;-76
2021/12/20 05:28:28;;;;;;;8.50;2.42;;;;;;;;;;6278816;22;20018;-76
2021/12/20 05:30:54;;;;;;;7.85;2.38;;;;;;;;;;6252731;22;20080;-76
2021/12/20 05:33:21;;;;;;;7.10;2.40;;;;;;;;;;6276910;22;20081;-76
2021/12/20 05:35:48;;;;;;;6.90;2.13;;;;;;;;;;6278948;22;20022;-76
2021/12/20 05:38:14;;;;;;;5.22;1.90;;;;;;;;;;6277790;22;20279;-76
2021/12/20 05:40:40;;;;;;;9.75;2.50;;;;;;;;;;6278279;22;20016;-77
2021/12/20 05:43:06;;;;;;;7.43;2.17;;;;;;;;;;6277261;22;20394;-75
2021/12/20 05:45:33;;;;;;;9.88;2.22;;;;;;;;;;6277941;22;20027;-77
2021/12/20 05:47:59;;;;;;;7.50;2.42;;;;;;;;;;6277544;22;20016;-77
2021/12/20 05:50:25;;;;;;;6.55;2.50;;;;;;;;;;6277790;22;20422;-75
2021/12/20 05:52:51;;;;;;;8.20;2.60;;;;;;;;;;6277511;22;20011;-77
2021/12/20 05:55:18;;;;;;;5.47;2.30;;;;;;;;;;6278314;22;20408;-76
2021/12/20 05:57:44;;;;;;;9.23;2.20;;;;;;;;;;6277023;22;20018;-76
2021/12/20 06:00:15;;;;;;;7.25;2.35;;;;;;;;;;6278812;22;20011;-76
2021/12/20 06:02:43;;;;;;;19.02;3.15;;;;;;;;;;6277257;22;20008;-75
2021/12/20 06:05:09;;;;;;;6.95;2.63;;;;;;;;;;6277509;22;20047;-76
2021/12/20 06:07:39;;;;;;;8.80;2.50;;;;;;;;;;6251913;22;20011;-75
2021/12/20 06:10:05;;;;;;;7.45;2.58;;;;;;;;;;6277598;22;20028;-74
2021/12/20 06:12:32;;;;;;;7.78;2.25;;;;;;;;;;6278490;22;20008;-77
2021/12/20 06:14:58;;;;;;;8.65;2.53;;;;;;;;;;6277071;22;20051;-77
2021/12/20 06:17:24;;;;;;;7.85;2.20;;;;;;;;;;6251862;22;20103;-77
2021/12/20 06:19:50;;;;;;;11.00;2.47;;;;;;;;;;6277177;22;20012;-76
2021/12/20 06:22:16;;;;;;;10.82;2.75;;;;;;;;;;6278559;22;20011;-75
2021/12/20 06:24:42;;;;;;;8.23;2.40;;;;;;;;;;6276938;22;20398;-77
2021/12/20 06:27:08;;;;;;;6.43;2.65;;;;;;;;;;6277283;22;20019;-76
2021/12/20 06:29:34;;;;;;;5.38;2.30;;;;;;;;;;6277469;22;20012;-76
2021/12/20 06:32:01;;;;;;;8.73;2.53;;;;;;;;;;6278246;22;20751;-75
2021/12/20 06:34:27;;;;;;;8.55;2.65;;;;;;;;;;6278231;22;20397;-76
2021/12/20 06:36:53;;;;;;;8.98;2.85;;;;;;;;;;6277106;22;20374;-77
2021/12/20 06:39:19;;;;;;;9.07;2.40;;;;;;;;;;6277813;22;20022;-77
2021/12/20 06:41:45;;;;;;;9.00;2.38;;;;;;;;;;6251659;22;20024;-76
2021/12/20 06:44:11;;;;;;;9.23;2.38;;;;;;;;;;6276533;22;20016;-77
2021/12/20 06:46:40;;;;;;;9.38;2.63;;;;;;;;;;6276641;22;20019;-76
2021/12/20 06:49:08;;;;;;;8.27;2.33;;;;;;;;;;6278679;22;20050;-75
2021/12/20 06:51:40;;;;;;;8.55;2.50;;;;;;;;;;6276832;22;20022;-77
2021/12/20 06:54:06;;;;;;;8.45;2.60;;;;;;;;;;6278270;22;20034;-75
2021/12/20 06:56:32;;;;;;;6.30;2.20;;;;;;;;;;6276520;22;20019;-76
2021/12/20 06:58:58;;;;;;;10.07;2.60;;;;;;;;;;6276366;22;20015;-76
2021/12/20 07:01:24;;;;;;;8.55;2.47;;;;;;;;;;6277797;22;20034;-75
2021/12/20 07:03:50;;;;;;;5.35;2.17;;;;;;;;;;6277668;22;20425;-75
2021/12/20 07:06:16;;;;;;;9.18;2.20;;;;;;;;;;6277961;22;20093;-76
2021/12/20 07:08:43;;;;;;;9.07;2.45;;;;;;;;;;6277032;22;20011;-74
2021/12/20 07:11:09;;;;;;;8.10;2.40;;;;;;;;;;6276639;22;20042;-74
2021/12/20 07:13:36;;;;;;;8.32;2.58;;;;;;;;;;6276062;22;20011;-77
2021/12/20 07:16:02;;;;;;;7.00;2.30;;;;;;;;;;6276720;22;20012;-77
2021/12/20 07:18:28;;;;;;;7.93;2.60;;;;;;;;;;6278028;22;20283;-77
2021/12/20 07:20:54;;;;;;;5.97;2.38;;;;;;;;;;6278219;22;20016;-75
2021/12/20 07:23:21;;;;;;;6.55;2.90;;;;;;;;;;6276769;22;20015;-76
2021/12/20 07:25:48;;;;;;;7.30;2.90;;;;;;;;;;6276903;22;20015;-74
2021/12/20 07:28:14;;;;;;;9.10;2.78;;;;;;;;;;6276557;22;20022;-76
2021/12/20 07:30:40;;;;;;;7.57;2.55;;;;;;;;;;6251357;22;20039;-75
2021/12/20 07:33:07;;;;;;;5.88;2.10;;;;;;;;;;6278093;22;20007;-76
2021/12/20 07:35:34;;;;;;;4.97;2.20;;;;;;;;;;6277523;22;20027;-77
2021/12/20 07:38:03;;;;;;;7.93;2.80;;;;;;;;;;6276613;22;20022;-77
2021/12/20 07:40:29;;;;;;;9.93;2.60;;;;;;;;;;6277198;22;20015;-76
2021/12/20 07:42:55;;;;;;;8.82;2.70;;;;;;;;;;6276179;22;20030;-76
2021/12/20 07:45:21;;;;;;;9.45;2.85;;;;;;;;;;6251220;22;20007;-75
2021/12/20 07:47:48;;;;;;;11.32;2.75;;;;;;;;;;6276500;22;20095;-76
2021/12/20 07:50:15;;;;;;;11.32;3.10;;;;;;;;;;6277799;22;20092;-75
2021/12/20 07:52:41;;;;;;;9.02;2.42;;;;;;;;;;6276496;22;20047;-76
2021/12/20 07:55:08;;;;;;;9.38;3.08;;;;;;;;;;6276564;22;20026;-76
2021/12/20 07:57:34;;;;;;;10.20;3.20;;;;;;;;;;6277696;22;20024;-75
2021/12/20 08:00:00;;;;;;;8.23;3.00;;;;;;;;;;6276816;22;20012;-76
2021/12/20 08:02:26;;;;;;;11.15;3.05;;;;;;;;;;6276503;22;20085;-77
2021/12/20 08:04:52;;;;;;;6.97;2.53;;;;;;;;;;6276491;22;20031;-76
2021/12/20 08:07:21;;;;;;;10.30;2.55;;;;;;;;;;6276314;22;20424;-75
2021/12/20 08:09:47;;;;;;;6.80;2.75;;;;;;;;;;6276370;22;20298;-76
2021/12/20 08:12:13;;;;;;;8.50;2.53;;;;;;;;;;6249906;22;20106;-76
2021/12/20 08:14:39;;;;;;;8.15;2.63;;;;;;;;;;6276044;22;20019;-78
2021/12/20 08:17:06;;;;;;;7.18;2.83;;;;;;;;;;6276272;22;20019;-77
2021/12/20 08:19:32;;;;;;;7.85;3.03;;;;;;;;;;6275650;22;20012;-77
2021/12/20 08:21:58;;;;;;;7.85;2.83;;;;;;;;;;6276458;22;20397;-77
2021/12/20 08:24:24;;;;;;;13.88;3.60;;;;;;;;;;6278037;22;20019;-77
2021/12/20 08:26:50;;;;;;;6.28;2.83;;;;;;;;;;6276198;22;20023;-78
2021/12/20 08:29:16;;;;;;;7.15;2.60;;;;;;;;;;6278164;22;20004;-78
2021/12/20 08:31:42;;;;;;;7.32;2.70;;;;;;;;;;6250444;22;20007;-78
2021/12/20 08:34:08;;;;;;;10.27;2.90;;;;;;;;;;6276306;22;20008;-77
2021/12/20 08:36:34;;;;;;;8.43;2.80;;;;;;;;;;6277361;22;20251;-78
2021/12/20 08:39:01;;;;;;;6.80;2.90;;;;;;;;;;6275933;22;20018;-77
2021/12/20 08:41:27;;;;;;;11.02;3.33;;;;;;;;;;6274495;22;20015;-77
2021/12/20 08:43:53;;;;;;;8.35;2.97;;;;;;;;;;6273904;22;20020;-77
2021/12/20 08:46:19;;;;;;;6.40;2.90;;;;;;;;;;6275932;22;20012;-77
2021/12/20 08:48:48;;;;;;;9.60;2.95;;;;;;;;;;6276163;22;20298;-77
2021/12/20 08:51:14;;;;;;;10.10;3.60;;;;;;;;;;6276518;22;20025;-78
2021/12/20 08:53:40;;;;;;;11.20;3.97;;;;;;;;;;6250285;22;20031;-78
2021/12/20 08:56:07;;;;;;;11.85;3.17;;;;;;;;;;6277128;22;20449;-82
2021/12/20 08:58:33;;;;;;;8.25;3.75;;;;;;;;;;6275405;22;20429;-77
2021/12/20 09:00:59;;;;;;;14.98;4.32;;;;;;;;;;6250480;22;20015;-76
2021/12/20 09:03:27;;;;;;;13.77;3.60;;;;;;;;;;6275990;22;20012;-77
2021/12/20 09:05:53;;;;;;;12.40;3.00;;;;;;;;;;6277608;22;20104;-76
2021/12/20 09:08:21;;;;;;;17.13;3.38;;;;;;;;;;6277798;22;20118;-77
2021/12/20 09:10:47;;;;;;;11.65;3.22;;;;;;;;;;6276211;22;20465;-77
2021/12/20 09:13:13;;;;;;;9.18;3.45;;;;;;;;;;6278795;22;20133;-76
2021/12/20 09:15:40;;;;;;;13.95;3.40;;;;;;;;;;6297744;22;20015;-76
2021/12/20 09:18:07;;;;;;;12.27;3.40;;;;;;;;;;6281897;22;20030;-75
2021/12/20 09:20:34;;;;;;;13.13;4.10;;;;;;;;;;6281274;22;20019;-77
2021/12/20 09:23:05;;;;;;;14.23;4.20;;;;;;;;;;6309175;22;20011;-77
2021/12/20 09:25:32;;;;;;;12.10;3.67;;;;;;;;;;6310203;22;20062;-76
2021/12/20 09:27:59;;;;;;;13.07;4.15;;;;;;;;;;6310100;22;20069;-78
2021/12/20 09:30:26;;;;;;;13.63;3.85;;;;;;;;;;6282607;22;20432;-77
2021/12/20 09:32:52;;;;;;;15.45;4.05;;;;;;;;;;6309422;22;20015;-77
2021/12/20 09:35:19;;;;;;;13.48;3.55;;;;;;;;;;6283064;22;20137;-76
2021/12/20 09:37:49;;;;;;;13.25;3.83;;;;;;;;;;6310094;22;20007;-77
2021/12/20 09:40:16;;;;;;;19.60;3.58;;;;;;;;;;6282766;22;20049;-76
2021/12/20 09:42:49;;;;;;;19.13;4.10;;;;;;;;;;6309676;22;20011;-76
2021/12/20 09:45:25;;;;;;;19.65;3.60;;;;;;;;;;6283123;22;20007;-76
2021/12/20 09:47:51;;;;;;;15.05;3.20;;;;;;;;;;6309692;22;20038;-78
2021/12/20 09:50:18;;;;;;;19.75;4.55;;;;;;;;;;6257074;22;20038;-77
2021/12/20 09:52:45;;;;;;;18.25;3.95;;;;;;;;;;6256836;22;20069;-77
2021/12/20 09:55:14;;;;;;;24.40;5.68;;;;;;;;;;6282858;22;20102;-76
2021/12/20 09:57:44;;;;;;;12.00;4.10;;;;;;;;;;6282181;22;20305;-76
2021/12/20 10:00:11;;;;;;;13.02;3.70;;;;;;;;;;6281998;22;20029;-78
2021/12/20 10:02:37;;;;;;;13.27;4.35;;;;;;;;;;6282464;22;20016;-76
2021/12/20 10:05:04;;;;;;;14.85;4.07;;;;;;;;;;6310095;22;20007;-75
2021/12/20 10:07:30;;;;;;;12.02;3.65;;;;;;;;;;6283107;22;20019;-78
2021/12/20 10:09:59;;;;;;;23.10;4.40;;;;;;;;;;6310347;22;20015;-74
2021/12/20 10:12:26;;;;;;;15.90;3.72;;;;;;;;;;6282211;22;20074;-80
2021/12/20 10:14:58;;;;;;;16.30;4.53;;;;;;;;;;6305383;22;20015;-74
2021/12/20 10:17:26;;;;;;;12.83;4.03;;;;;;;;;;6280760;22;20000;-73
2021/12/20 10:19:52;;;;;;;19.05;4.05;;;;;;;;;;6280908;22;20018;-77
2021/12/20 10:22:29;;;;;;;18.33;3.92;;;;;;;;;;6281663;22;20038;-77
2021/12/20 10:25:00;;;;;;;18.77;4.18;;;;;;;;;;6304524;22;20026;-75
2021/12/20 10:27:34;;;;;;;16.63;3.78;;;;;;;;;;6309042;22;20019;-77
2021/12/20 10:30:01;;;;;;;16.30;3.83;;;;;;;;;;6281557;22;20007;-75
2021/12/20 10:32:43;;;;;;;15.00;3.47;;;;;;;;;;6281679;22;20019;-77
2021/12/20 10:35:27;;;;;;;14.10;3.97;;;;;;;;;;6282498;22;20072;-78
2021/12/20 10:37:58;;;;;;;12.95;4.03;;;;;;;;;;6308290;22;20029;-77
2021/12/20 10:40:25;;;;;;;18.13;4.25;;;;;;;;;;6281353;22;20081;-75
2021/12/20 10:42:53;;;;;;;18.77;4.03;;;;;;;;;;6280940;22;20421;-76
2021/12/20 10:45:20;;;;;;;13.05;3.67;;;;;;;;;;6300608;22;20003;-78
2021/12/20 10:47:47;;;;;;;18.17;4.65;;;;;;;;;;6305950;22;20015;-76
2021/12/20 10:50:28;;;;;;;13.77;3.42;;;;;;;;;;6254848;22;20029;-79
2021/12/20 10:52:55;;;;;;;16.65;4.43;;;;;;;;;;6279275;22;20398;-75
2021/12/20 10:55:40;;;;;;;20.60;4.45;;;;;;;;;;6281854;22;20309;-76
2021/12/20 10:58:18;;;;;;;15.53;3.33;;;;;;;;;;6258144;22;20018;-80
2021/12/20 11:00:45;;;;;;;16.67;4.00;;;;;;;;;;6309473;22;20394;-77
2021/12/20 11:03:25;;;;;;;28.50;4.88;;;;;;;;;;6257412;22;20030;-74
2021/12/20 11:11:23;;;;;;;18.10;4.10;;;;;;;;;;6282461;22;20072;-77
2021/12/20 11:13:49;;;;;;;17.88;4.35;;;;;;;;;;6282263;22;20011;-78
2021/12/20 11:16:25;;;;;;;15.70;4.72;;;;;;;;;;6277602;22;20012;-76
2021/12/20 11:19:11;;;;;;;14.43;4.07;;;;;;;;;;6277090;22;20008;-76
2021/12/20 11:21:38;;;;;;;20.77;4.57;;;;;;;;;;6277635;22;20414;-77
2021/12/20 11:24:10;;;;;;;18.27;4.35;;;;;;;;;;6276776;22;20019;-77
2021/12/20 11:26:37;;;;;;;13.63;3.63;;;;;;;;;;6276834;22;20012;-77
2021/12/20 11:29:04;;;;;;;15.02;4.03;;;;;;;;;;6277871;22;20020;-76
2021/12/20 11:31:32;;;;;;;22.13;4.55;;;;;;;;;;6275427;22;20012;-78
2021/12/20 11:33:59;;;;;;;16.13;5.00;;;;;;;;;;6276818;22;20114;-77
2021/12/20 11:36:25;;;;;;;18.48;4.22;;;;;;;;;;6277913;22;20072;-78
2021/12/20 11:38:52;;;;;;;20.67;3.85;;;;;;;;;;6251211;22;20405;-79
2021/12/20 11:41:18;;;;;;;16.88;4.53;;;;;;;;;;6277958;22;20014;-78
2021/12/20 11:43:47;;;;;;;17.73;4.57;;;;;;;;;;6220222;23;20098;-76
2021/12/20 11:46:14;;;;;;;19.60;4.05;;;;;;;;;;6245244;23;20366;-77
2021/12/20 11:48:42;;;;;;;14.02;3.97;;;;;;;;;;6244965;23;20018;-77
2021/12/20 11:51:08;;;;;;;17.77;4.10;;;;;;;;;;6244963;23;20424;-78
2021/12/20 11:53:40;;;;;;;17.75;4.50;;;;;;;;;;6245279;23;20091;-77
2021/12/20 11:56:07;;;;;;;12.02;4.40;;;;;;;;;;6214613;23;20050;-77
2021/12/20 11:58:34;;;;;;;13.52;4.43;;;;;;;;;;6214739;23;20398;-77
2021/12/20 12:01:16;;;;;;;19.60;4.30;;;;;;;;;;6213328;23;20013;-78
2021/12/20 12:03:51;;;;;;;16.35;4.63;;;;;;;;;;6213883;23;20111;-77
2021/12/20 12:06:23;;;;;;;16.05;4.05;;;;;;;;;;6213968;23;20394;-77
2021/12/20 12:08:51;;;;;;;19.80;4.72;;;;;;;;;;6214497;23;20140;-79
2021/12/20 12:11:17;;;;;;;17.33;4.13;;;;;;;;;;6164685;23;20075;-78
2021/12/20 12:14:00;;;;;;;17.20;4.30;;;;;;;;;;6166396;23;20425;-77
2021/12/20 12:16:47;;;;;;;20.10;4.45;;;;;;;;;;6218973;23;20051;-77
2021/12/20 12:19:13;;;;;;;;;;;;;;;;;;6219951;23;20361;-78
2021/12/20 12:21:41;;;;;;;23.00;5.00;;;;;;;;;;6193018;23;19907;-78
2021/12/20 12:24:14;;;;;;;13.98;3.85;;;;;;;;;;6218607;23;20031;-77
2021/12/20 12:26:46;;;;;;;18.08;4.47;;;;;;;;;;6233699;22;20043;-77
2021/12/20 12:29:18;;;;;;;16.15;4.30;;;;;;;;;;6250414;22;20305;-78
2021/12/20 12:31:58;;;;;;;17.50;4.20;;;;;;;;;;6276276;22;20078;-79
2021/12/20 12:34:38;;;;;;;25.70;5.53;;;;;;;;;;6276351;22;20023;-78
2021/12/20 12:37:25;;;;;;;14.70;4.15;;;;;;;;;;6276062;22;20015;-78
2021/12/20 12:39:51;;;;;;;13.70;4.13;;;;;;;;;;6277616;22;20014;-77
2021/12/20 12:42:18;;;;;;;15.98;4.88;;;;;;;;;;6276956;22;20019;-77
2021/12/20 12:44:51;;;;;;;14.25;4.18;;;;;;;;;;6277579;22;20090;-78
2021/12/20 12:47:33;;;;;;;14.77;4.28;;;;;;;;;;6252378;22;20015;-78
2021/12/20 12:50:00;;;;;;;18.15;5.22;;;;;;;;;;6253412;22;20011;-79
2021/12/20 12:52:26;;;;;;;16.65;4.65;;;;;;;;;;6278240;22;20020;-79
2021/12/20 12:54:53;;;;;;;18.77;5.32;;;;;;;;;;6278681;22;20016;-78
2021/12/20 12:57:19;;;;;;;17.60;4.65;;;;;;;;;;6252674;22;20022;-78
2021/12/20 12:59:52;;;;;;;17.63;5.18;;;;;;;;;;6252161;22;20018;-78
2021/12/20 13:02:23;;;;;;;13.32;4.28;;;;;;;;;;6252566;22;20018;-77
2021/12/20 13:04:51;;;;;;;15.88;4.78;;;;;;;;;;6278749;22;20149;-78
2021/12/20 13:07:27;;;;;;;14.82;4.25;;;;;;;;;;6278274;22;20015;-78
2021/12/20 13:09:55;;;;;;;15.55;4.47;;;;;;;;;;6278564;22;20039;-77
2021/12/20 13:15:27;;;;;;;20.85;4.43;;;;;;;;;;6276673;22;20023;-79
2021/12/20 13:17:59;;;;;;;18.08;4.57;;;;;;;;;;6278583;22;20031;-77
2021/12/20 13:22:57;;;;;;;18.23;4.55;;;;;;;;;;6277836;22;20015;-78
2021/12/20 13:25:32;;;;;;;19.95;4.90;;;;;;;;;;6278826;22;20358;-77
2021/12/20 13:27:59;;;;;;;16.73;4.60;;;;;;;;;;6277872;22;20015;-81
2021/12/20 13:30:29;;;;;;;14.98;4.53;;;;;;;;;;6277266;22;20008;-77
2021/12/20 13:33:27;;;;;;;22.55;5.25;;;;;;;;;;6277855;22;20050;-85
2021/12/20 13:35:54;;;;;;;18.90;4.55;;;;;;;;;;6224433;22;20016;-77
2021/12/20 13:38:24;;;;;;;16.40;4.22;;;;;;;;;;6252133;22;20401;-76
2021/12/20 13:40:55;;;;;;;21.20;5.50;;;;;;;;;;6277669;22;20012;-78
2021/12/20 13:43:31;;;;;;;17.70;5.72;;;;;;;;;;6276488;22;20012;-78
2021/12/20 13:46:03;;;;;;;18.63;4.73;;;;;;;;;;6278127;22;20367;-77
2021/12/20 13:48:29;;;;;;;13.48;4.30;;;;;;;;;;6252150;22;20105;-78
2021/12/20 13:50:55;;;;;;;19.38;5.28;;;;;;;;;;6251947;22;20007;-78
2021/12/20 13:53:28;;;;;;;16.08;4.60;;;;;;;;;;6278308;22;20354;-77
2021/12/20 13:55:56;;;;;;;21.08;5.38;;;;;;;;;;6251980;22;20104;-79
2021/12/20 13:58:22;;;;;;;24.23;5.75;;;;;;;;;;6277779;22;20027;-80
2021/12/20 14:00:48;;;;;;;20.75;5.30;;;;;;;;;;6278407;22;20015;-78
2021/12/20 14:03:14;;;;;;;19.38;5.20;;;;;;;;;;6277203;22;20019;-77
2021/12/20 14:05:40;;;;;;;17.20;4.50;;;;;;;;;;6277731;22;20058;-77
2021/12/20 14:08:14;;;;;;;16.10;4.78;;;;;;;;;;6277653;22;20090;-77
2021/12/20 14:10:41;;;;;;;18.17;5.60;;;;;;;;;;6276884;22;20014;-77
2021/12/20 14:13:08;;;;;;;17.85;4.57;;;;;;;;;;6276806;22;20022;-76
2021/12/20 14:15:34;;;;;;;19.38;5.45;;;;;;;;;;6296958;22;20011;-78
2021/12/20 14:18:00;;;;;;;16.02;5.13;;;;;;;;;;6281972;22;20019;-79
2021/12/20 14:20:40;;;;;;;19.67;5.88;;;;;;;;;;6256718;22;20061;-79
2021/12/20 14:23:08;;;;;;;16.48;5.22;;;;;;;;;;6281937;22;20420;-79
2021/12/20 14:25:35;;;;;;;14.02;4.15;;;;;;;;;;6256630;22;20082;-78
2021/12/20 14:28:03;;;;;;;19.50;4.63;;;;;;;;;;6281822;22;20026;-78
2021/12/20 14:30:29;;;;;;;16.60;4.53;;;;;;;;;;6282343;22;20011;-79
2021/12/20 14:32:56;;;;;;;15.27;4.60;;;;;;;;;;6257053;22;20003;-78
2021/12/20 14:35:29;;;;;;;15.10;4.47;;;;;;;;;;6309189;22;20011;-77
2021/12/20 14:37:57;;;;;;;11.38;3.80;;;;;;;;;;6281147;22;20011;-78
2021/12/20 14:40:39;;;;;;;16.00;4.25;;;;;;;;;;6281601;22;20003;-77
2021/12/20 14:43:07;;;;;;;14.20;4.75;;;;;;;;;;6256121;22;20042;-82
2021/12/20 14:45:34;;;;;;;11.57;4.35;;;;;;;;;;6282334;22;20007;-77
2021/12/20 14:48:21;;;;;;;20.80;8.68;;;;;;;;;;6256533;22;20018;-78
2021/12/20 14:50:47;;;;;;;;;;;;;;;;;;6284389;22;20050;-80
2021/12/20 14:53:13;;;;;;;;;;;;;;;;;;6257401;22;19921;-75
2021/12/20 14:55:40;;;;;;;22.33;8.73;;;;;;;;;;6283001;22;19907;-80
2021/12/20 14:58:06;;;;;;;24.55;9.98;;;;;;;;;;6281936;22;20010;-78
2021/12/20 15:00:32;;;;;;;21.70;9.00;;;;;;;;;;6282050;22;20076;-80
2021/12/20 15:02:58;;;;;;;21.77;10.43;;;;;;;;;;6280773;22;20020;-77
2021/12/20 15:05:24;;;;;;;23.42;9.30;;;;;;;;;;6280963;22;20119;-79